Time;durP1;ratioP1;P1;durP2;ratioP2;P2;SDS_P1;SDS_P2;PMS_P1;PMS_P2;Temp;Humidity;BMP_temperature;BMP_pressure;BME280_temperature;BME280_humidity;BME280_pressure;Samples;Min_cycle;Max_cycle;Signal;HPM_P1;HPM_P2
2022/02/02 00:01:41;;;;;;;12.65;4.72;;;0.40;99.90;;;;;;5108923;28;20250;-75
2022/02/02 00:04:10;;;;;;;15.73;4.47;;;0.50;99.90;;;;;;5091981;28;20207;-76
2022/02/02 00:06:44;;;;;;;8.02;3.65;;;0.70;99.90;;;;;;5108979;28;20201;-76
2022/02/02 00:09:14;;;;;;;9.32;4.82;;;0.80;99.90;;;;;;5109020;28;20213;-76
2022/02/02 00:21:54;;;;;;;9.93;5.30;;;1.30;99.90;;;;;;5070663;28;20210;-75
2022/02/02 00:24:33;;;;;;;8.18;4.75;;;1.30;99.90;;;;;;5070504;28;20181;-73
2022/02/02 00:27:00;;;;;;;9.43;3.92;;;1.20;99.90;;;;;;5069987;28;20145;-73
2022/02/02 00:29:33;;;;;;;12.40;4.55;;;1.20;99.90;;;;;;5085589;28;20187;-74
2022/02/02 00:32:09;;;;;;;10.65;4.68;;;1.20;99.90;;;;;;5090321;28;20155;-75
2022/02/02 00:34:35;;;;;;;11.82;6.13;;;1.10;99.90;;;;;;5090382;28;20168;-73
2022/02/02 00:37:01;;;;;;;13.02;6.38;;;1.10;99.90;;;;;;5089809;28;20156;-73
2022/02/02 00:39:29;;;;;;;15.30;6.30;;;1.10;99.90;;;;;;5090237;28;20169;-73
2022/02/02 00:41:57;;;;;;;15.95;6.25;;;1.20;99.90;;;;;;5090167;28;20305;-75
2022/02/02 00:44:25;;;;;;;12.63;5.53;;;1.30;99.90;;;;;;5090059;28;20199;-75
2022/02/02 00:46:52;;;;;;;11.35;4.38;;;1.40;99.90;;;;;;5089622;28;20167;-73
2022/02/02 00:49:19;;;;;;;9.43;6.10;;;1.60;99.90;;;;;;5090029;28;20213;-76
2022/02/02 00:51:46;;;;;;;10.55;4.45;;;1.70;99.90;;;;;;5090068;28;20153;-75
2022/02/02 00:54:18;;;;;;;8.95;4.18;;;1.80;99.90;;;;;;5089849;28;20190;-75
2022/02/02 00:56:44;;;;;;;7.03;4.80;;;1.80;99.90;;;;;;5071408;28;20202;-75
2022/02/02 00:59:11;;;;;;;10.30;5.25;;;1.90;99.90;;;;;;5069478;28;20161;-74
2022/02/02 01:01:37;;;;;;;7.72;4.47;;;1.90;99.90;;;;;;5069433;28;20208;-74
2022/02/02 01:04:03;;;;;;;7.03;4.22;;;1.90;99.90;;;;;;5068319;28;20224;-74
2022/02/02 01:06:33;;;;;;;5.32;3.15;;;1.90;99.90;;;;;;5069776;28;20161;-74
2022/02/02 01:21:57;;;;;;;3.33;1.92;;;1.80;99.90;;;;;;5069207;28;20200;-73
2022/02/02 01:29:52;;;;;;;1.83;1.55;;;1.80;99.90;;;;;;5069283;28;20159;-74
2022/02/02 01:32:18;;;;;;;2.30;1.13;;;1.80;99.90;;;;;;5069313;28;20216;-74
2022/02/02 01:34:43;;;;;;;3.90;0.90;;;1.80;99.90;;;;;;5069341;28;20181;-74
2022/02/02 01:37:10;;;;;;;2.20;1.10;;;1.80;99.90;;;;;;5069310;28;20169;-73
2022/02/02 01:39:37;;;;;;;3.72;1.20;;;1.80;99.90;;;;;;5069346;28;20164;-73
2022/02/02 01:42:07;;;;;;;3.92;1.15;;;1.80;99.90;;;;;;5069344;28;20196;-74
2022/02/02 01:44:47;;;;;;;1.95;1.10;;;1.80;99.90;;;;;;5069180;28;20206;-73
2022/02/02 01:47:14;;;;;;;2.13;0.70;;;1.70;99.90;;;;;;5069139;28;20159;-74
2022/02/02 01:55:00;;;;;;;3.55;1.10;;;1.60;99.90;;;;;;5069289;28;20156;-74
2022/02/02 01:59:57;;;;;;;2.20;1.58;;;1.70;99.90;;;;;;5068974;28;20223;-76
2022/02/02 02:02:24;;;;;;;6.75;3.42;;;1.60;99.90;;;;;;5069034;28;20270;-74
2022/02/02 02:04:51;;;;;;;6.30;3.17;;;1.60;99.90;;;;;;5068972;28;20238;-74
2022/02/02 02:07:17;;;;;;;6.47;3.53;;;1.50;99.90;;;;;;5069084;28;20167;-75
2022/02/02 02:09:43;;;;;;;7.68;4.47;;;1.50;99.90;;;;;;5069014;28;20164;-76
2022/02/02 02:12:11;;;;;;;7.05;4.03;;;1.40;99.90;;;;;;5068772;28;20238;-75
2022/02/02 02:14:47;;;;;;;7.43;4.15;;;1.20;99.90;;;;;;5068992;28;20184;-75
2022/02/02 02:17:14;;;;;;;9.82;4.85;;;1.10;99.90;;;;;;5069065;28;20179;-75
2022/02/02 02:19:45;;;;;;;9.63;3.63;;;1.00;99.90;;;;;;5067550;28;20172;-74
2022/02/02 02:22:14;;;;;;;9.00;5.32;;;1.00;99.90;;;;;;5068862;28;20204;-74
2022/02/02 02:24:41;;;;;;;9.65;4.72;;;1.00;99.90;;;;;;5068726;28;20211;-74
2022/02/02 02:27:09;;;;;;;9.40;5.20;;;1.10;99.90;;;;;;5068865;28;20172;-73
2022/02/02 02:35:39;;;;;;;7.95;4.78;;;1.20;99.90;;;;;;5068793;28;20172;-74
2022/02/02 02:57:16;;;;;;;7.18;3.92;;;1.30;99.90;;;;;;5072282;28;20171;-75
2022/02/02 02:59:49;;;;;;;7.03;4.07;;;1.30;99.90;;;;;;5072454;28;20614;-75
2022/02/02 03:30:16;;;;;;;6.65;3.88;;;1.30;99.90;;;;;;5071748;28;20160;-75
2022/02/02 03:51:44;;;;;;;9.13;3.10;;;1.60;99.90;;;;;;5071122;28;20199;-74
2022/02/02 03:54:40;;;;;;;3.88;2.88;;;1.60;99.90;;;;;;5080220;28;20249;-76
2022/02/02 03:57:34;;;;;;;5.50;2.83;;;1.60;99.90;;;;;;5090933;28;20176;-76
2022/02/02 04:07:51;;;;;;;9.02;3.00;;;1.70;99.90;;;;;;5090849;28;20152;-75
2022/02/02 04:10:18;;;;;;;8.32;3.35;;;1.70;99.90;;;;;;5090862;28;20151;-76
2022/02/02 04:55:55;;;;;;;8.88;4.32;;;1.60;99.90;;;;;;5070041;28;20165;-75
2022/02/02 05:02:02;;;;;;;9.20;3.78;;;1.60;99.90;;;;;;5069668;28;20262;-76
2022/02/02 05:09:15;;;;;;;8.18;4.53;;;1.70;99.90;;;;;;5069552;28;20227;-75
2022/02/02 05:17:14;;;;;;;7.68;3.83;;;1.80;99.90;;;;;;5069420;28;20160;-74
2022/02/02 05:44:21;;;;;;;5.72;3.33;;;2.00;99.90;;;;;;5069210;28;20270;-75
2022/02/02 05:52:16;;;;;;;9.05;3.83;;;2.00;99.90;;;;;;5068796;28;20191;-75
2022/02/02 05:54:42;;;;;;;7.18;4.40;;;2.00;99.90;;;;;;5068511;28;20164;-76
2022/02/02 05:57:13;;;;;;;6.68;3.72;;;2.00;99.90;;;;;;5068936;28;20198;-75
2022/02/02 05:59:42;;;;;;;10.25;3.97;;;2.00;99.90;;;;;;5068604;28;20165;-75
2022/02/02 06:02:12;;;;;;;6.55;4.13;;;2.00;99.90;;;;;;5068399;28;20251;-75
2022/02/02 06:04:46;;;;;;;7.72;4.10;;;1.90;99.90;;;;;;5068549;28;20192;-75
2022/02/02 06:07:16;;;;;;;9.30;3.72;;;2.00;99.90;;;;;;5068965;28;20161;-76
2022/02/02 06:09:49;;;;;;;7.20;3.65;;;2.00;99.90;;;;;;5068683;28;20164;-76
2022/02/02 06:12:20;;;;;;;7.97;3.75;;;2.00;99.90;;;;;;5068466;28;20192;-75
2022/02/02 06:14:51;;;;;;;8.98;5.22;;;2.10;99.90;;;;;;5068416;28;20157;-75
2022/02/02 06:17:19;;;;;;;6.78;3.35;;;2.10;99.90;;;;;;5070591;28;20157;-75
2022/02/02 06:19:45;;;;;;;8.10;4.47;;;2.10;99.90;;;;;;5072733;28;20172;-75
2022/02/02 06:22:17;;;;;;;5.93;3.90;;;2.10;99.90;;;;;;5072459;28;20192;-75
2022/02/02 06:24:51;;;;;;;10.93;5.28;;;2.10;99.90;;;;;;5072528;28;20184;-73
2022/02/02 06:27:23;;;;;;;5.75;4.15;;;2.10;99.90;;;;;;5072478;28;20156;-74
2022/02/02 06:30:03;;;;;;;8.32;5.05;;;2.20;99.90;;;;;;5072601;28;20214;-75
2022/02/02 06:32:46;;;;;;;8.02;5.28;;;2.10;99.90;;;;;;5072227;28;20251;-74
2022/02/02 06:35:14;;;;;;;8.40;5.18;;;2.20;99.90;;;;;;5072343;28;20176;-75
2022/02/02 06:37:42;;;;;;;20.67;5.43;;;2.20;99.90;;;;;;5072331;28;20233;-75
2022/02/02 06:40:10;;;;;;;12.02;5.70;;;2.20;99.90;;;;;;5072053;28;20161;-75
2022/02/02 06:42:37;;;;;;;12.70;6.07;;;2.20;99.90;;;;;;5071790;28;20192;-75
2022/02/02 06:45:04;;;;;;;12.88;6.20;;;2.20;99.90;;;;;;5072150;28;20196;-75
2022/02/02 06:47:30;;;;;;;14.15;6.32;;;2.20;99.90;;;;;;5072135;28;20213;-75
2022/02/02 06:50:06;;;;;;;12.52;6.00;;;2.20;99.90;;;;;;5071453;28;20148;-75
2022/02/02 06:52:48;;;;;;;13.18;7.07;;;2.20;99.90;;;;;;5070619;28;20156;-75
2022/02/02 06:55:32;;;;;;;13.88;7.10;;;2.30;99.90;;;;;;5070088;28;20176;-74
2022/02/02 06:58:21;;;;;;;10.18;6.25;;;2.30;99.90;;;;;;5071627;28;20219;-73
2022/02/02 07:01:10;;;;;;;14.75;7.28;;;2.40;99.90;;;;;;5071254;28;20220;-74
2022/02/02 07:04:06;;;;;;;12.07;5.63;;;2.50;99.90;;;;;;5071671;28;20157;-72
2022/02/02 07:09:33;;;;;;;11.77;6.47;;;2.50;99.90;;;;;;5071488;28;20167;-73
2022/02/02 07:12:19;;;;;;;10.38;6.03;;;2.60;99.90;;;;;;5071142;28;20215;-73
2022/02/02 07:17:43;;;;;;;11.77;5.20;;;2.60;99.90;;;;;;5071500;28;20176;-73
2022/02/02 07:28:17;;;;;;;13.25;5.40;;;2.80;99.90;;;;;;5071040;28;20152;-73
2022/02/02 07:33:25;;;;;;;13.13;6.90;;;3.00;99.90;;;;;;5071379;28;20160;-75
2022/02/02 07:38:30;;;;;;;16.10;7.78;;;3.10;99.90;;;;;;5071251;28;20187;-73
2022/02/02 07:41:05;;;;;;;15.20;7.82;;;3.20;99.90;;;;;;5071105;28;20280;-73
2022/02/02 07:43:37;;;;;;;14.38;7.45;;;3.20;99.90;;;;;;5071201;28;20149;-75
2022/02/02 07:46:08;;;;;;;8.63;4.95;;;3.00;99.90;;;;;;5071240;28;20168;-75
2022/02/02 07:48:37;;;;;;;14.43;5.55;;;3.00;99.90;;;;;;5071052;28;20497;-74
2022/02/02 07:51:04;;;;;;;15.13;6.45;;;3.00;99.90;;;;;;5070919;28;20185;-75
2022/02/02 07:53:41;;;;;;;11.20;6.47;;;3.10;99.90;;;;;;5070792;28;20179;-72
2022/02/02 07:56:13;;;;;;;12.50;6.88;;;3.00;99.90;;;;;;5070936;28;20184;-74
2022/02/02 07:58:43;;;;;;;12.25;6.85;;;3.10;99.90;;;;;;5070931;28;20160;-74
2022/02/02 08:01:09;;;;;;;18.48;6.35;;;3.10;99.90;;;;;;5070511;28;20784;-75
2022/02/02 08:03:41;;;;;;;15.32;5.32;;;3.10;99.90;;;;;;5075379;28;20173;-74
2022/02/02 08:06:10;;;;;;;9.85;5.38;;;3.20;99.90;;;;;;5087888;28;20246;-75
2022/02/02 08:08:37;;;;;;;10.77;5.80;;;3.20;99.90;;;;;;5070557;28;20240;-75
2022/02/02 08:11:07;;;;;;;11.43;5.28;;;3.30;99.90;;;;;;5075455;28;20294;-74
2022/02/02 08:13:40;;;;;;;8.85;5.22;;;3.50;99.90;;;;;;5090747;28;20256;-74
2022/02/02 08:16:16;;;;;;;11.27;6.25;;;3.50;99.90;;;;;;5090647;28;20167;-74
2022/02/02 08:18:46;;;;;;;20.17;8.18;;;3.80;99.90;;;;;;5090377;28;20627;-74
2022/02/02 08:21:12;;;;;;;18.02;7.68;;;3.90;99.90;;;;;;5072291;28;20556;-74
2022/02/02 08:23:38;;;;;;;17.70;8.95;;;4.00;99.90;;;;;;5070432;28;20161;-73
2022/02/02 08:26:12;;;;;;;17.88;8.82;;;4.20;99.90;;;;;;5070340;28;20187;-73
2022/02/02 08:28:38;;;;;;;23.02;8.95;;;4.40;99.90;;;;;;5070520;28;20228;-73
2022/02/02 08:31:05;;;;;;;15.32;8.18;;;4.40;99.90;;;;;;5070246;28;20195;-73
2022/02/02 08:33:35;;;;;;;21.02;8.85;;;4.30;99.90;;;;;;5070198;28;20161;-73
2022/02/02 08:36:04;;;;;;;24.70;9.63;;;4.30;99.90;;;;;;5070284;28;20579;-73
2022/02/02 08:38:45;;;;;;;13.73;8.32;;;4.50;99.90;;;;;;5089618;28;20172;-74
2022/02/02 08:41:21;;;;;;;11.30;5.90;;;4.60;99.90;;;;;;5089667;28;20184;-73
2022/02/02 08:43:54;;;;;;;14.80;5.57;;;4.80;99.90;;;;;;5090008;28;20202;-72
2022/02/02 08:46:33;;;;;;;8.88;5.55;;;4.70;99.90;;;;;;5089978;28;20160;-73
2022/02/02 08:49:03;;;;;;;13.80;6.50;;;4.70;99.90;;;;;;5089991;28;20152;-73
2022/02/02 08:51:33;;;;;;;12.13;6.65;;;4.90;99.90;;;;;;5089629;28;20215;-73
2022/02/02 08:59:36;;;;;;;14.55;8.77;;;6.10;99.90;;;;;;5089898;28;20183;-73
2022/02/02 09:02:07;;;;;;;18.20;9.27;;;5.80;99.90;;;;;;5089476;28;20231;-74
2022/02/02 09:07:18;;;;;;;13.48;7.63;;;6.30;99.90;;;;;;5076005;28;20162;-75
2022/02/02 09:23:34;;;;;;;2.17;1.40;;;6.70;99.90;;;;;;5086512;28;20218;-74
2022/02/02 09:34:10;;;;;;;0.40;0.30;;;7.30;99.90;;;;;;5086233;28;20171;-74
2022/02/02 09:36:40;;;;;;;2.97;1.30;;;7.70;99.90;;;;;;5086707;28;20152;-75
2022/02/02 09:39:27;;;;;;;0.30;0.20;;;8.00;99.90;;;;;;5087106;28;20156;-75
2022/02/02 09:42:02;;;;;;;0.30;0.10;;;7.80;99.90;;;;;;5086835;28;20230;-75
2022/02/02 09:44:35;;;;;;;0.50;0.10;;;7.90;99.90;;;;;;5069136;28;20201;-73
2022/02/02 09:50:04;;;;;;;0.55;0.30;;;9.40;99.90;;;;;;5086971;28;20186;-74
2022/02/02 09:52:37;;;;;;;1.25;0.73;;;9.90;99.90;;;;;;5086901;28;20192;-74
2022/02/02 10:15:31;;;;;;;0.30;0.10;;;10.20;99.90;;;;;;5070494;28;20196;-74
2022/02/02 10:18:19;;;;;;;0.65;0.10;;;10.20;99.90;;;;;;5088534;28;20159;-75
2022/02/02 10:20:50;;;;;;;1.55;0.95;;;11.00;99.90;;;;;;5088730;28;20195;-74
2022/02/02 10:23:26;;;;;;;1.08;0.50;;;10.00;99.90;;;;;;5088712;28;20172;-74
2022/02/02 10:25:57;;;;;;;2.17;1.02;;;9.40;99.90;;;;;;5087541;28;20537;-76
2022/02/02 10:28:29;;;;;;;0.40;0.28;;;9.20;99.90;;;;;;5088662;28;20164;-74
2022/02/02 10:31:04;;;;;;;0.13;0.13;;;9.60;99.90;;;;;;5088652;28;20153;-76
2022/02/02 10:33:31;;;;;;;0.85;0.50;;;9.50;99.90;;;;;;5088267;28;20167;-75
2022/02/02 10:36:13;;;;;;;1.40;0.20;;;9.60;99.90;;;;;;5087659;28;20188;-74
2022/02/02 10:38:47;;;;;;;0.28;0.13;;;10.30;99.90;;;;;;5088121;28;20159;-73
2022/02/02 10:41:19;;;;;;;0.13;0.10;;;11.30;99.90;;;;;;5088585;28;20151;-74
2022/02/02 10:43:58;;;;;;;0.30;0.30;;;11.70;99.90;;;;;;5088341;28;20215;-72
2022/02/02 10:46:34;;;;;;;0.30;0.10;;;11.40;99.90;;;;;;5088028;28;20265;-75
2022/02/02 10:50:03;;;;;;;0.45;0.30;;;10.80;99.90;;;;;;5088340;28;20167;-75
2022/02/02 10:52:44;;;;;;;0.90;0.20;;;10.50;99.90;;;;;;5090369;28;20184;-75
2022/02/02 11:08:54;;;;;;;0.45;0.30;;;11.90;99.90;;;;;;5110086;28;20191;-75
2022/02/02 11:11:20;;;;;;;0.63;0.30;;;11.90;99.90;;;;;;5109559;28;20167;-76
2022/02/02 11:13:50;;;;;;;0.40;0.20;;;11.50;99.90;;;;;;5109735;28;20228;-77
2022/02/02 11:16:24;;;;;;;0.60;0.35;;;10.50;99.90;;;;;;5109882;28;20187;-75
2022/02/02 11:18:53;;;;;;;0.25;0.20;;;10.10;99.90;;;;;;5109891;28;20179;-75
2022/02/02 11:21:21;;;;;;;0.43;0.28;;;11.20;99.90;;;;;;5127189;28;20179;-75
2022/02/02 11:23:51;;;;;;;0.20;0.20;;;12.40;99.90;;;;;;5128844;28;20197;-73
2022/02/02 11:26:43;;;;;;;2.72;0.35;;;12.50;99.90;;;;;;5130252;28;20266;-73
2022/02/02 11:29:10;;;;;;;1.00;0.40;;;12.10;99.90;;;;;;5130093;28;20195;-75
2022/02/02 11:32:05;;;;;;;1.52;0.20;;;11.60;99.90;;;;;;5116495;28;20194;-75
2022/02/02 11:34:31;;;;;;;0.30;0.28;;;12.10;99.90;;;;;;5071273;28;20221;-76
2022/02/02 11:36:58;;;;;;;0.20;0.20;;;11.40;99.90;;;;;;5062840;28;20195;-74
2022/02/02 11:39:41;;;;;;;0.20;0.10;;;11.10;99.90;;;;;;5051130;28;20161;-74
2022/02/02 11:42:18;;;;;;;3.80;1.20;;;10.40;99.90;;;;;;5053284;28;20185;-75
2022/02/02 11:49:51;;;;;;;0.05;0.05;;;8.20;99.90;;;;;;5051249;28;20161;-73
2022/02/02 11:52:43;;;;;;;0.25;0.20;;;7.60;99.90;;;;;;5051038;28;20157;-73
2022/02/02 11:55:12;;;;;;;1.58;0.10;;;7.30;99.90;;;;;;5049269;28;20192;-74
2022/02/02 11:58:12;;;;;;;1.48;0.13;;;7.00;99.90;;;;;;5050830;28;20221;-73
2022/02/02 12:01:04;;;;;;;0.57;0.30;;;6.40;99.90;;;;;;5057915;28;20582;-73
2022/02/02 12:03:54;;;;;;;0.35;0.22;;;6.10;99.90;;;;;;5074160;28;20191;-74
2022/02/02 12:09:02;;;;;;;0.40;0.10;;;6.30;99.90;;;;;;5090445;28;20160;-73
2022/02/02 12:57:02;;;;;;;0.25;0.25;;;6.40;99.90;;;;;;5087444;28;20167;-74
2022/02/02 13:02:19;;;;;;;0.20;0.20;;;6.40;99.90;;;;;;5087239;28;20243;-73
2022/02/02 13:04:52;;;;;;;0.30;0.22;;;6.50;99.90;;;;;;5086482;28;20196;-74
2022/02/02 13:07:21;;;;;;;1.63;0.75;;;6.50;99.90;;;;;;5087076;28;20754;-73
2022/02/02 13:09:49;;;;;;;4.22;1.40;;;6.60;99.90;;;;;;5087073;28;20184;-75
2022/02/02 13:12:17;;;;;;;1.50;0.65;;;6.40;99.90;;;;;;5070298;28;20196;-73
2022/02/02 13:15:07;;;;;;;1.30;0.77;;;6.40;99.90;;;;;;5086433;28;20621;-74
2022/02/02 13:17:55;;;;;;;0.60;0.40;;;6.40;99.90;;;;;;5086847;28;20175;-73
2022/02/02 13:20:48;;;;;;;1.20;0.77;;;6.30;99.90;;;;;;5087171;28;20243;-75
2022/02/02 13:23:31;;;;;;;0.45;0.20;;;6.40;99.90;;;;;;5087115;28;20697;-73
2022/02/02 13:26:02;;;;;;;0.57;0.30;;;6.50;99.90;;;;;;5073660;28;20295;-73
2022/02/02 13:29:05;;;;;;;0.25;0.25;;;6.60;99.90;;;;;;5068829;28;20198;-73
2022/02/02 13:31:44;;;;;;;2.03;0.25;;;6.80;99.90;;;;;;5068724;28;20188;-73
2022/02/02 13:34:26;;;;;;;0.10;0.10;;;6.70;99.90;;;;;;5068464;28;20175;-73
2022/02/02 13:37:13;;;;;;;1.38;0.22;;;6.60;99.90;;;;;;5068871;28;20163;-74
2022/02/02 14:09:16;;;;;;;0.60;0.57;;;6.70;99.90;;;;;;5068584;28;20179;-74
2022/02/02 14:25:40;;;;;;;0.35;0.25;;;6.70;99.90;;;;;;5079660;28;20254;-74
2022/02/02 14:31:08;;;;;;;0.30;0.30;;;6.90;99.90;;;;;;5088470;28;20187;-74
2022/02/02 14:33:36;;;;;;;0.43;0.30;;;6.70;99.90;;;;;;5068909;28;20556;-75
2022/02/02 14:36:05;;;;;;;0.20;0.20;;;6.50;99.90;;;;;;5068557;28;20181;-74
2022/02/02 14:43:46;;;;;;;1.27;0.90;;;6.20;99.90;;;;;;5071777;28;20165;-75
2022/02/02 14:46:15;;;;;;;1.27;0.95;;;6.10;99.90;;;;;;5074153;28;20157;-74
2022/02/02 14:48:50;;;;;;;0.30;0.30;;;6.00;99.90;;;;;;5091953;28;20145;-73
2022/02/02 15:29:05;;;;;;;1.33;0.40;;;5.30;99.90;;;;;;5091173;28;20219;-74
2022/02/02 15:31:32;;;;;;;1.15;0.73;;;5.20;99.90;;;;;;5091217;28;20256;-73
2022/02/02 15:34:00;;;;;;;1.05;0.63;;;5.10;99.90;;;;;;5091385;28;20164;-73
2022/02/02 15:39:14;;;;;;;0.40;0.40;;;5.20;99.90;;;;;;5091546;28;20163;-75
2022/02/02 15:42:02;;;;;;;0.60;0.40;;;5.10;99.90;;;;;;5090974;28;20188;-73
2022/02/02 15:58:17;;;;;;;0.40;0.30;;;5.10;99.90;;;;;;5090637;28;20152;-74
2022/02/02 16:03:35;;;;;;;1.15;0.50;;;4.90;99.90;;;;;;5089206;28;20240;-73
2022/02/02 16:06:26;;;;;;;0.63;0.45;;;4.70;99.90;;;;;;5089564;28;20187;-73
2022/02/02 16:08:58;;;;;;;0.73;0.40;;;4.50;99.90;;;;;;5090208;28;20187;-72
2022/02/02 16:11:28;;;;;;;0.88;0.50;;;4.40;99.90;;;;;;5081642;28;20192;-73
2022/02/02 16:13:59;;;;;;;0.60;0.50;;;4.40;99.90;;;;;;5070186;28;20177;-73
2022/02/02 16:37:37;;;;;;;4.45;2.40;;;3.90;99.90;;;;;;5070057;28;20175;-73
2022/02/02 16:40:06;;;;;;;18.45;6.22;;;3.80;99.90;;;;;;5070027;28;20161;-73
2022/02/02 16:45:18;;;;;;;12.65;6.35;;;3.80;99.90;;;;;;5069694;28;20246;-73
2022/02/02 16:47:44;;;;;;;2.45;1.20;;;3.90;99.90;;;;;;5069786;28;20161;-73
2022/02/02 16:50:16;;;;;;;2.45;0.80;;;3.80;99.90;;;;;;5069785;28;20153;-73
2022/02/02 16:52:45;;;;;;;0.70;0.60;;;3.80;99.90;;;;;;5069833;28;20207;-73
2022/02/02 16:55:18;;;;;;;3.40;0.85;;;3.90;99.90;;;;;;5073345;28;20232;-74
2022/02/02 16:57:55;;;;;;;3.05;0.73;;;3.90;99.90;;;;;;5089397;28;20221;-73
2022/02/02 17:24:24;;;;;;;1.20;0.65;;;3.80;99.90;;;;;;5089119;28;20241;-73
2022/02/02 17:33:15;;;;;;;0.85;0.77;;;4.30;99.90;;;;;;5081131;28;20194;-76
2022/02/02 17:38:37;;;;;;;3.13;0.95;;;5.10;99.90;;;;;;5105441;28;20541;-74
2022/02/02 17:41:33;;;;;;;3.33;0.60;;;5.50;99.90;;;;;;5092526;28;20168;-74
2022/02/02 17:44:17;;;;;;;0.88;0.55;;;5.50;99.90;;;;;;5095711;28;20175;-75
2022/02/02 18:19:39;;;;;;;1.50;0.60;;;5.50;99.90;;;;;;5072759;28;20163;-74
2022/02/02 18:22:05;;;;;;;1.85;0.70;;;5.30;99.90;;;;;;5088988;28;20195;-74
2022/02/02 18:24:50;;;;;;;1.15;0.40;;;5.20;99.90;;;;;;5082272;28;20212;-75
2022/02/02 18:27:23;;;;;;;0.75;0.70;;;5.40;99.90;;;;;;5073921;28;20255;-74
2022/02/02 18:30:02;;;;;;;0.55;0.50;;;5.60;99.90;;;;;;5081902;28;20195;-75
2022/02/02 18:32:54;;;;;;;1.13;0.52;;;5.60;99.90;;;;;;5092066;28;20151;-75
2022/02/02 18:35:22;;;;;;;1.45;0.85;;;5.90;99.90;;;;;;5087455;28;20235;-77
2022/02/02 18:48:09;;;;;;;1.08;0.90;;;5.40;99.90;;;;;;5092395;28;20152;-75
2022/02/02 18:51:01;;;;;;;1.60;0.70;;;5.70;99.90;;;;;;5092231;28;20195;-76
2022/02/02 18:53:56;;;;;;;1.48;0.82;;;5.70;99.90;;;;;;5091571;28;20148;-73
2022/02/02 18:59:15;;;;;;;0.47;0.22;;;5.50;99.90;;;;;;5078075;28;20244;-76
2022/02/02 19:01:50;;;;;;;2.35;0.43;;;5.50;99.90;;;;;;5071694;28;20228;-77
2022/02/02 20:11:40;;;;;;;4.18;1.85;;;4.40;99.90;;;;;;5086683;28;20202;-76
2022/02/02 20:14:07;;;;;;;1.77;1.48;;;4.30;99.90;;;;;;5072293;28;20535;-75
2022/02/02 20:16:33;;;;;;;3.30;0.30;;;4.20;99.90;;;;;;5090742;28;20160;-76
2022/02/02 20:19:02;;;;;;;1.42;0.50;;;4.10;99.90;;;;;;5090653;28;20160;-74
2022/02/02 20:21:32;;;;;;;5.03;2.20;;;4.00;99.90;;;;;;5090429;28;20191;-76
2022/02/02 20:24:01;;;;;;;2.28;1.83;;;3.90;99.90;;;;;;5089815;28;20176;-74
2022/02/02 20:26:29;;;;;;;1.48;0.50;;;3.80;99.90;;;;;;5090486;28;20154;-73
2022/02/02 20:28:59;;;;;;;1.25;0.60;;;3.70;99.90;;;;;;5090427;28;20202;-75
2022/02/02 20:31:25;;;;;;;1.42;0.63;;;3.70;99.90;;;;;;5090353;28;20199;-72
2022/02/02 20:33:51;;;;;;;0.57;0.50;;;3.60;99.90;;;;;;5082499;28;20196;-73
2022/02/02 20:36:17;;;;;;;0.30;0.30;;;3.50;99.90;;;;;;5088182;28;20199;-72
2022/02/02 20:38:43;;;;;;;0.85;0.30;;;3.40;99.90;;;;;;5090293;28;20164;-72
2022/02/02 20:41:09;;;;;;;2.85;1.02;;;3.30;99.90;;;;;;5090259;28;20152;-73
2022/02/02 20:43:58;;;;;;;0.60;0.30;;;3.20;99.90;;;;;;5090124;28;20905;-74
2022/02/02 21:08:56;;;;;;;0.43;0.25;;;3.30;99.90;;;;;;5089705;28;20168;-74
2022/02/02 21:10:42;;;;;;;1.23;0.40;;;3.40;99.90;;;;;;5090138;28;20184;-75
2022/02/02 21:15:53;;;;;;;0.20;0.20;;;3.40;99.90;;;;;;5089586;28;20203;-74
2022/02/02 21:18:22;;;;;;;0.43;0.20;;;3.30;99.90;;;;;;5089686;28;20243;-73
2022/02/02 21:23:36;;;;;;;1.60;0.40;;;3.20;99.90;;;;;;5089527;28;20160;-73
2022/02/02 21:26:22;;;;;;;0.30;0.30;;;3.30;99.90;;;;;;5089332;28;20234;-73
2022/02/02 21:28:48;;;;;;;0.75;0.30;;;3.40;99.90;;;;;;5089545;28;20152;-74
2022/02/02 21:31:14;;;;;;;0.80;0.30;;;3.30;99.90;;;;;;5088256;28;20196;-73
2022/02/02 21:33:40;;;;;;;3.03;0.40;;;3.30;99.90;;;;;;5089394;28;20302;-73
2022/02/02 21:36:12;;;;;;;0.30;0.15;;;3.20;99.90;;;;;;5089317;28;20198;-74
2022/02/02 21:39:05;;;;;;;0.45;0.20;;;3.20;99.90;;;;;;5089404;28;20153;-74
2022/02/02 21:41:31;;;;;;;0.38;0.35;;;3.10;99.90;;;;;;5089181;28;20195;-73
2022/02/02 21:43:57;;;;;;;0.30;0.20;;;3.20;99.90;;;;;;5087928;28;20243;-73
2022/02/02 21:46:25;;;;;;;0.20;0.20;;;3.20;99.90;;;;;;5089223;28;20196;-72
2022/02/02 21:48:52;;;;;;;0.25;0.25;;;3.20;99.90;;;;;;5089404;28;20527;-74
2022/02/02 21:51:28;;;;;;;0.20;0.20;;;3.30;99.90;;;;;;5089167;28;20148;-72
2022/02/02 21:53:55;;;;;;;0.20;0.20;;;3.30;99.90;;;;;;5089139;28;20187;-72
2022/02/02 21:56:21;;;;;;;0.10;0.10;;;3.20;99.90;;;;;;5088806;28;20673;-71
2022/02/02 21:58:48;;;;;;;0.17;0.17;;;3.20;99.90;;;;;;5088081;28;20156;-74
2022/02/02 22:01:15;;;;;;;0.43;0.20;;;3.10;99.90;;;;;;5087588;28;20231;-73
2022/02/02 22:03:41;;;;;;;0.20;0.20;;;3.10;99.90;;;;;;5089025;28;20188;-72
2022/02/02 22:06:07;;;;;;;0.98;0.20;;;3.10;99.90;;;;;;5089110;28;20251;-73
2022/02/02 22:08:33;;;;;;;0.70;0.40;;;3.20;99.90;;;;;;5084907;28;20333;-73
2022/02/02 22:10:59;;;;;;;0.30;0.28;;;3.20;99.90;;;;;;5073915;28;20168;-72
2022/02/02 22:13:36;;;;;;;1.00;0.17;;;3.20;99.90;;;;;;5088857;28;20253;-73
2022/02/02 22:16:08;;;;;;;0.50;0.50;;;3.20;99.90;;;;;;5089054;28;20155;-73
2022/02/02 22:18:35;;;;;;;0.80;0.40;;;3.30;99.90;;;;;;5087676;28;20180;-72
2022/02/02 22:21:01;;;;;;;1.23;0.40;;;3.40;99.90;;;;;;5089093;28;20152;-72
2022/02/02 22:23:27;;;;;;;0.30;0.28;;;3.40;99.90;;;;;;5088943;28;20219;-72
2022/02/02 22:25:54;;;;;;;0.52;0.30;;;3.30;99.90;;;;;;5088861;28;20228;-73
2022/02/02 22:28:20;;;;;;;0.40;0.40;;;3.10;99.90;;;;;;5088936;28;20168;-73
2022/02/02 22:30:46;;;;;;;0.95;0.40;;;2.90;99.90;;;;;;5088871;28;20163;-73
2022/02/02 22:33:12;;;;;;;1.25;0.22;;;2.90;99.90;;;;;;5087456;28;20210;-73
2022/02/02 22:35:38;;;;;;;0.60;0.52;;;3.30;99.90;;;;;;5088881;28;20191;-73
2022/02/02 22:38:04;;;;;;;1.42;0.43;;;3.30;99.90;;;;;;5087695;28;20583;-73
2022/02/02 22:40:30;;;;;;;1.65;0.68;;;3.00;99.90;;;;;;5088798;28;20218;-73
2022/02/02 22:42:56;;;;;;;2.17;0.50;;;2.70;99.90;;;;;;5088667;28;20195;-74
2022/02/02 22:45:22;;;;;;;1.83;0.65;;;2.50;99.90;;;;;;5088680;28;20551;-74
2022/02/02 22:47:49;;;;;;;0.82;0.40;;;2.30;99.90;;;;;;5088801;28;20211;-73
2022/02/02 22:50:19;;;;;;;1.85;0.32;;;2.00;99.90;;;;;;5088700;28;20164;-73
2022/02/02 22:52:48;;;;;;;1.85;0.75;;;1.90;99.90;;;;;;5088727;28;20216;-74
2022/02/02 22:55:17;;;;;;;0.98;0.50;;;1.70;99.90;;;;;;5088718;28;20184;-74
2022/02/02 22:57:43;;;;;;;2.50;0.90;;;1.50;99.90;;;;;;5088553;28;20156;-73
2022/02/02 23:00:14;;;;;;;1.58;0.70;;;1.40;99.90;;;;;;5091244;28;20207;-74
2022/02/02 23:02:59;;;;;;;1.17;0.75;;;1.30;99.90;;;;;;5073524;28;20200;-73
2022/02/02 23:05:34;;;;;;;3.42;1.30;;;1.30;99.90;;;;;;5071908;28;20661;-73
2022/02/02 23:08:01;;;;;;;3.33;0.82;;;1.30;99.90;;;;;;5072066;28;20153;-73
2022/02/02 23:10:28;;;;;;;2.03;1.05;;;1.20;99.90;;;;;;5072246;28;20576;-73
2022/02/02 23:12:54;;;;;;;4.00;1.00;;;1.20;99.90;;;;;;5080757;28;20314;-73
2022/02/02 23:15:26;;;;;;;5.75;1.23;;;1.30;99.90;;;;;;5072067;28;20164;-73
2022/02/02 23:17:53;;;;;;;1.15;0.93;;;1.30;99.90;;;;;;5071992;28;20621;-73
2022/02/02 23:20:19;;;;;;;1.00;0.70;;;1.20;99.90;;;;;;5071856;28;20160;-73
2022/02/02 23:22:46;;;;;;;1.67;0.60;;;1.10;99.90;;;;;;5071052;28;20184;-74
2022/02/02 23:25:15;;;;;;;2.67;0.88;;;1.20;99.90;;;;;;5077862;28;20279;-73
2022/02/02 23:27:46;;;;;;;1.08;0.55;;;1.20;99.90;;;;;;5071197;28;20173;-73
2022/02/02 23:30:16;;;;;;;0.55;0.55;;;1.40;99.90;;;;;;5070424;28;20171;-73
2022/02/02 23:32:43;;;;;;;0.40;0.40;;;1.40;99.90;;;;;;5071445;28;20195;-73
2022/02/02 23:35:10;;;;;;;0.68;0.50;;;1.50;99.90;;;;;;5071480;28;20214;-73
2022/02/02 23:37:38;;;;;;;1.42;0.77;;;1.40;99.90;;;;;;5070970;28;20167;-74
2022/02/02 23:40:08;;;;;;;1.15;0.50;;;1.40;99.90;;;;;;5071494;28;20160;-74
2022/02/02 23:42:37;;;;;;;1.75;0.98;;;1.30;99.90;;;;;;5071451;28;20739;-73
2022/02/02 23:45:06;;;;;;;1.35;0.70;;;1.20;99.90;;;;;;5071515;28;20188;-73
2022/02/02 23:47:43;;;;;;;3.25;0.65;;;1.00;99.90;;;;;;5070956;28;20157;-74
2022/02/02 23:50:12;;;;;;;0.95;0.50;;;1.10;99.90;;;;;;5071450;28;20216;-74
2022/02/02 23:55:10;;;;;;;1.73;0.60;;;0.80;99.90;;;;;;5071260;28;20161;-74
